Airfield :
LOGIN :

Register | Disclaimer

   EN    FR    IT 

 










Legend :    VFR   Marginal VFR   IFR   Intensive IFR   Very Intensive IFR
Visi :
Ceiling :
>= 8 km
>= 3000ft
5 to 8 km
1000 to 3000 ft
1500m to 5 km
500 to 1000 ft
800 to 1500m
200 to 500 ft
< 800m
< 200 ft
Symbols :   Thunderstorms  Fog  Heavy snow  Heavy precipitations  Wind > 20 kt
SIGMETs :     Misc.  Thunderstorms  Icing  Turbulence  Mountain Waves  Volcanic Ashes






- Airport Elevation : 425 ft
- IATA code : DTM


EDLW - Dortmund

CURRENT METAR :
  • 250420Z 06003KT 9999 -SN FEW033 BKN048 M01/M03 Q0999

EXPIRED METARs :
  • 250350Z AUTO 00000KT 9999 // FEW030/// SCT036/// BKN053/// M01/M03 Q0998
  • 250320Z AUTO VRB01KT 9999 // FEW035/// SCT044/// BKN057/// M01/M03 Q0998
  • 250250Z AUTO VRB02KT 9999 // FEW040/// BKN049/// BKN064/// M01/M03 Q0998
  • 250220Z AUTO 10005KT 9999 // FEW051/// BKN064/// BKN075/// M01/M03 Q0998

TAF TAF EDLW
Valid from the 25 at 05:00 until the 26 at 00:00 UTC


250435Z 2505/2524 VRB03KT 9999 BKN035
PROB30
TEMPO 2509/2512 BKN010
BECMG 2515/2518 22006KT
BECMG 2520/2522 22012KT
TEMPO 2522/2524 4000 SHSN BKN010CB



MET'MAP, your aeronautical weather chart ! - Copyright ORBIFLY December 2007 - Disclaimer

ORBIFLY MET'MAP TEAM :

Programming & Development : Alexandra Zaïnal
Concept & original design : Baudouin d'Aumeries
Assistance for programming : Marc-Olivier Méhu
Technical & hardware support : Manuel Goepfert

Contact : metmap@orbifly.com




SOURCES & CREDITS :

   NOAA